sensor_id;sensor_type;location;lat;lon;timestamp;temperature;humidity
33803;DHT22;20110;53.120;5.786;2022-08-19T00:01:54;12.80;99.90
33803;DHT22;20110;53.120;5.786;2022-08-19T00:04:24;12.70;99.90
33803;DHT22;20110;53.120;5.786;2022-08-19T00:06:53;12.70;99.90
33803;DHT22;20110;53.120;5.786;2022-08-19T00:09:20;12.80;99.90
33803;DHT22;20110;53.120;5.786;2022-08-19T00:11:47;12.90;99.90
33803;DHT22;20110;53.120;5.786;2022-08-19T00:14:16;12.90;99.90
33803;DHT22;20110;53.120;5.786;2022-08-19T00:16:45;12.90;99.90
33803;DHT22;20110;53.120;5.786;2022-08-19T00:19:12;12.90;99.90
33803;DHT22;20110;53.120;5.786;2022-08-19T00:21:39;12.90;99.90
33803;DHT22;20110;53.120;5.786;2022-08-19T00:24:10;12.90;99.90
33803;DHT22;20110;53.120;5.786;2022-08-19T00:26:38;12.90;99.90
33803;DHT22;20110;53.120;5.786;2022-08-19T00:29:05;12.80;99.90
33803;DHT22;20110;53.120;5.786;2022-08-19T00:31:32;12.80;99.90
33803;DHT22;20110;53.120;5.786;2022-08-19T00:33:58;12.90;99.90
33803;DHT22;20110;53.120;5.786;2022-08-19T00:36:24;12.90;99.90
33803;DHT22;20110;53.120;5.786;2022-08-19T00:38:50;12.90;99.90
33803;DHT22;20110;53.120;5.786;2022-08-19T00:41:19;12.90;99.90
33803;DHT22;20110;53.120;5.786;2022-08-19T00:44:09;12.80;99.90
33803;DHT22;20110;53.120;5.786;2022-08-19T00:46:38;12.80;99.90
33803;DHT22;20110;53.120;5.786;2022-08-19T00:49:29;12.80;99.90
33803;DHT22;20110;53.120;5.786;2022-08-19T00:52:14;12.70;99.90
33803;DHT22;20110;53.120;5.786;2022-08-19T00:54:42;12.70;99.90
33803;DHT22;20110;53.120;5.786;2022-08-19T00:57:13;12.80;99.90
33803;DHT22;20110;53.120;5.786;2022-08-19T00:59:45;12.80;99.90
33803;DHT22;20110;53.120;5.786;2022-08-19T01:02:14;12.80;99.90
33803;DHT22;20110;53.120;5.786;2022-08-19T01:04:41;12.70;99.90
33803;DHT22;20110;53.120;5.786;2022-08-19T01:07:07;12.80;99.90
33803;DHT22;20110;53.120;5.786;2022-08-19T01:09:33;12.80;99.90
33803;DHT22;20110;53.120;5.786;2022-08-19T01:11:59;12.80;99.90
33803;DHT22;20110;53.120;5.786;2022-08-19T01:14:26;12.70;99.90
33803;DHT22;20110;53.120;5.786;2022-08-19T01:16:53;12.70;99.90
33803;DHT22;20110;53.120;5.786;2022-08-19T01:19:27;12.60;99.90
33803;DHT22;20110;53.120;5.786;2022-08-19T01:22:02;12.50;99.90
33803;DHT22;20110;53.120;5.786;2022-08-19T01:24:33;12.40;99.90
33803;DHT22;20110;53.120;5.786;2022-08-19T01:27:00;12.30;99.90
33803;DHT22;20110;53.120;5.786;2022-08-19T01:29:30;12.30;99.90
33803;DHT22;20110;53.120;5.786;2022-08-19T01:31:55;12.30;99.90
33803;DHT22;20110;53.120;5.786;2022-08-19T01:34:22;12.30;99.90
33803;DHT22;20110;53.120;5.786;2022-08-19T01:36:49;12.50;99.90
33803;DHT22;20110;53.120;5.786;2022-08-19T01:39:24;12.50;99.90
33803;DHT22;20110;53.120;5.786;2022-08-19T01:41:51;12.60;99.90
33803;DHT22;20110;53.120;5.786;2022-08-19T01:44:20;12.60;99.90
33803;DHT22;20110;53.120;5.786;2022-08-19T01:46:50;12.60;99.90
33803;DHT22;20110;53.120;5.786;2022-08-19T01:49:18;12.60;99.90
33803;DHT22;20110;53.120;5.786;2022-08-19T01:51:46;12.70;99.90
33803;DHT22;20110;53.120;5.786;2022-08-19T01:54:16;12.70;99.90
33803;DHT22;20110;53.120;5.786;2022-08-19T01:56:43;12.70;99.90
33803;DHT22;20110;53.120;5.786;2022-08-19T01:59:13;12.60;99.90
33803;DHT22;20110;53.120;5.786;2022-08-19T02:01:41;12.60;99.90
33803;DHT22;20110;53.120;5.786;2022-08-19T02:04:07;12.60;99.90
33803;DHT22;20110;53.120;5.786;2022-08-19T02:06:34;12.60;99.90
33803;DHT22;20110;53.120;5.786;2022-08-19T02:09:00;12.60;99.90
33803;DHT22;20110;53.120;5.786;2022-08-19T02:11:32;12.60;99.90
33803;DHT22;20110;53.120;5.786;2022-08-19T02:14:03;12.60;99.90
33803;DHT22;20110;53.120;5.786;2022-08-19T02:16:31;12.60;99.90
33803;DHT22;20110;53.120;5.786;2022-08-19T02:18:58;12.60;99.90
33803;DHT22;20110;53.120;5.786;2022-08-19T02:21:28;12.60;99.90
33803;DHT22;20110;53.120;5.786;2022-08-19T02:23:55;12.60;99.90
33803;DHT22;20110;53.120;5.786;2022-08-19T02:26:22;12.60;99.90
33803;DHT22;20110;53.120;5.786;2022-08-19T02:28:49;12.50;99.90
33803;DHT22;20110;53.120;5.786;2022-08-19T02:31:17;12.60;99.90
33803;DHT22;20110;53.120;5.786;2022-08-19T02:33:45;12.60;99.90
33803;DHT22;20110;53.120;5.786;2022-08-19T02:36:14;12.50;99.90
33803;DHT22;20110;53.120;5.786;2022-08-19T02:38:41;12.60;99.90
33803;DHT22;20110;53.120;5.786;2022-08-19T02:41:16;12.60;99.90
33803;DHT22;20110;53.120;5.786;2022-08-19T02:43:44;12.60;99.90
33803;DHT22;20110;53.120;5.786;2022-08-19T02:48:48;12.50;99.90
33803;DHT22;20110;53.120;5.786;2022-08-19T02:51:20;12.50;99.90
33803;DHT22;20110;53.120;5.786;2022-08-19T02:53:48;12.60;99.90
33803;DHT22;20110;53.120;5.786;2022-08-19T02:56:14;12.50;99.90
33803;DHT22;20110;53.120;5.786;2022-08-19T02:58:40;12.60;99.90
33803;DHT22;20110;53.120;5.786;2022-08-19T03:01:08;12.60;99.90
33803;DHT22;20110;53.120;5.786;2022-08-19T03:03:36;12.50;99.90
33803;DHT22;20110;53.120;5.786;2022-08-19T03:06:15;12.50;99.90
33803;DHT22;20110;53.120;5.786;2022-08-19T03:08:43;12.50;99.90
33803;DHT22;20110;53.120;5.786;2022-08-19T03:11:37;12.60;99.90
33803;DHT22;20110;53.120;5.786;2022-08-19T03:14:05;12.50;99.90
33803;DHT22;20110;53.120;5.786;2022-08-19T03:16:45;12.50;99.90
33803;DHT22;20110;53.120;5.786;2022-08-19T03:19:16;12.40;99.90
33803;DHT22;20110;53.120;5.786;2022-08-19T03:21:45;12.50;99.90
33803;DHT22;20110;53.120;5.786;2022-08-19T03:24:12;12.30;99.90
33803;DHT22;20110;53.120;5.786;2022-08-19T03:26:43;12.30;99.90
33803;DHT22;20110;53.120;5.786;2022-08-19T03:29:15;12.30;99.90
33803;DHT22;20110;53.120;5.786;2022-08-19T03:31:42;12.30;99.90
33803;DHT22;20110;53.120;5.786;2022-08-19T03:34:33;12.30;99.90
33803;DHT22;20110;53.120;5.786;2022-08-19T03:37:05;12.30;99.90
33803;DHT22;20110;53.120;5.786;2022-08-19T03:39:33;12.30;99.90
33803;DHT22;20110;53.120;5.786;2022-08-19T03:42:00;12.30;99.90
33803;DHT22;20110;53.120;5.786;2022-08-19T03:44:28;12.30;99.90
33803;DHT22;20110;53.120;5.786;2022-08-19T03:46:57;12.30;99.90
33803;DHT22;20110;53.120;5.786;2022-08-19T03:49:27;12.40;99.90
33803;DHT22;20110;53.120;5.786;2022-08-19T03:51:57;12.50;99.90
33803;DHT22;20110;53.120;5.786;2022-08-19T03:54:27;12.50;99.90
33803;DHT22;20110;53.120;5.786;2022-08-19T03:56:54;12.50;99.90
33803;DHT22;20110;53.120;5.786;2022-08-19T03:59:30;12.60;99.90
33803;DHT22;20110;53.120;5.786;2022-08-19T04:02:01;12.60;99.90
33803;DHT22;20110;53.120;5.786;2022-08-19T04:04:31;12.70;99.90
33803;DHT22;20110;53.120;5.786;2022-08-19T04:06:56;12.70;99.90
33803;DHT22;20110;53.120;5.786;2022-08-19T04:09:22;12.70;99.90
33803;DHT22;20110;53.120;5.786;2022-08-19T04:11:51;12.70;99.90
33803;DHT22;20110;53.120;5.786;2022-08-19T04:14:23;12.70;99.90
33803;DHT22;20110;53.120;5.786;2022-08-19T04:16:51;12.70;99.90
33803;DHT22;20110;53.120;5.786;2022-08-19T04:19:19;12.70;99.90
33803;DHT22;20110;53.120;5.786;2022-08-19T04:21:48;12.70;99.90
33803;DHT22;20110;53.120;5.786;2022-08-19T04:24:15;12.70;99.90
33803;DHT22;20110;53.120;5.786;2022-08-19T04:26:43;12.70;99.90
33803;DHT22;20110;53.120;5.786;2022-08-19T04:29:15;12.70;99.90
33803;DHT22;20110;53.120;5.786;2022-08-19T04:31:44;12.60;99.90
33803;DHT22;20110;53.120;5.786;2022-08-19T04:34:13;12.60;99.90
33803;DHT22;20110;53.120;5.786;2022-08-19T04:36:42;12.60;99.90
33803;DHT22;20110;53.120;5.786;2022-08-19T04:39:13;12.60;99.90
33803;DHT22;20110;53.120;5.786;2022-08-19T04:41:41;12.60;99.90
33803;DHT22;20110;53.120;5.786;2022-08-19T04:44:25;12.60;99.90
33803;DHT22;20110;53.120;5.786;2022-08-19T04:46:52;12.60;99.90
33803;DHT22;20110;53.120;5.786;2022-08-19T04:49:20;12.50;99.90
33803;DHT22;20110;53.120;5.786;2022-08-19T04:51:48;12.50;99.90
33803;DHT22;20110;53.120;5.786;2022-08-19T04:54:16;12.60;99.90
33803;DHT22;20110;53.120;5.786;2022-08-19T04:56:43;12.60;99.90
33803;DHT22;20110;53.120;5.786;2022-08-19T04:59:09;12.60;99.90
33803;DHT22;20110;53.120;5.786;2022-08-19T05:01:36;12.70;99.90
33803;DHT22;20110;53.120;5.786;2022-08-19T05:04:04;12.70;99.90
33803;DHT22;20110;53.120;5.786;2022-08-19T05:06:32;12.80;99.90
33803;DHT22;20110;53.120;5.786;2022-08-19T05:09:03;13.00;99.90
33803;DHT22;20110;53.120;5.786;2022-08-19T05:11:33;13.00;99.90
33803;DHT22;20110;53.120;5.786;2022-08-19T05:14:05;13.10;99.90
33803;DHT22;20110;53.120;5.786;2022-08-19T05:16:31;13.20;99.90
33803;DHT22;20110;53.120;5.786;2022-08-19T05:18:57;13.20;99.90
33803;DHT22;20110;53.120;5.786;2022-08-19T05:21:42;13.30;99.90
33803;DHT22;20110;53.120;5.786;2022-08-19T05:24:28;13.50;99.90
33803;DHT22;20110;53.120;5.786;2022-08-19T05:26:55;13.60;99.90
33803;DHT22;20110;53.120;5.786;2022-08-19T05:29:26;13.70;99.90
33803;DHT22;20110;53.120;5.786;2022-08-19T05:31:54;13.80;99.90
33803;DHT22;20110;53.120;5.786;2022-08-19T05:34:23;13.90;99.90
33803;DHT22;20110;53.120;5.786;2022-08-19T05:36:57;14.00;99.90
33803;DHT22;20110;53.120;5.786;2022-08-19T05:39:27;14.00;99.90
33803;DHT22;20110;53.120;5.786;2022-08-19T05:41:57;14.00;99.90
33803;DHT22;20110;53.120;5.786;2022-08-19T05:44:28;14.10;99.90
33803;DHT22;20110;53.120;5.786;2022-08-19T05:47:01;14.10;99.90
33803;DHT22;20110;53.120;5.786;2022-08-19T05:49:32;14.20;99.90
33803;DHT22;20110;53.120;5.786;2022-08-19T05:51:58;14.30;99.90
33803;DHT22;20110;53.120;5.786;2022-08-19T05:54:29;14.40;99.90
33803;DHT22;20110;53.120;5.786;2022-08-19T05:56:55;14.50;99.90
33803;DHT22;20110;53.120;5.786;2022-08-19T05:59:21;14.60;99.90
33803;DHT22;20110;53.120;5.786;2022-08-19T06:01:50;14.70;99.90
33803;DHT22;20110;53.120;5.786;2022-08-19T06:04:19;14.70;99.90
33803;DHT22;20110;53.120;5.786;2022-08-19T06:06:47;14.80;99.90
33803;DHT22;20110;53.120;5.786;2022-08-19T06:09:14;14.90;99.90
33803;DHT22;20110;53.120;5.786;2022-08-19T06:11:53;15.10;99.90
33803;DHT22;20110;53.120;5.786;2022-08-19T06:14:27;15.10;99.90
33803;DHT22;20110;53.120;5.786;2022-08-19T06:16:56;15.30;99.90
33803;DHT22;20110;53.120;5.786;2022-08-19T06:19:25;15.30;99.90
33803;DHT22;20110;53.120;5.786;2022-08-19T06:21:52;15.50;99.90
33803;DHT22;20110;53.120;5.786;2022-08-19T06:24:21;15.60;99.90
33803;DHT22;20110;53.120;5.786;2022-08-19T06:26:51;15.70;99.90
33803;DHT22;20110;53.120;5.786;2022-08-19T06:29:22;15.80;99.90
33803;DHT22;20110;53.120;5.786;2022-08-19T06:31:51;15.90;99.90
33803;DHT22;20110;53.120;5.786;2022-08-19T06:34:19;16.00;99.90
33803;DHT22;20110;53.120;5.786;2022-08-19T06:36:47;16.10;99.90
33803;DHT22;20110;53.120;5.786;2022-08-19T06:39:19;16.10;99.90
33803;DHT22;20110;53.120;5.786;2022-08-19T06:41:53;16.20;99.90
33803;DHT22;20110;53.120;5.786;2022-08-19T06:44:22;16.40;99.90
33803;DHT22;20110;53.120;5.786;2022-08-19T06:46:52;16.40;99.90
33803;DHT22;20110;53.120;5.786;2022-08-19T06:49:19;16.60;99.90
33803;DHT22;20110;53.120;5.786;2022-08-19T06:51:46;16.70;99.90
33803;DHT22;20110;53.120;5.786;2022-08-19T06:54:14;16.80;99.90
33803;DHT22;20110;53.120;5.786;2022-08-19T06:56:41;16.90;99.90
33803;DHT22;20110;53.120;5.786;2022-08-19T06:59:17;17.00;99.90
33803;DHT22;20110;53.120;5.786;2022-08-19T07:01:48;17.00;99.90
33803;DHT22;20110;53.120;5.786;2022-08-19T07:04:25;17.00;99.90
33803;DHT22;20110;53.120;5.786;2022-08-19T07:07:19;17.20;99.90
33803;DHT22;20110;53.120;5.786;2022-08-19T07:09:45;17.20;99.90
33803;DHT22;20110;53.120;5.786;2022-08-19T07:12:13;17.30;99.90
33803;DHT22;20110;53.120;5.786;2022-08-19T07:14:41;17.30;99.90
33803;DHT22;20110;53.120;5.786;2022-08-19T07:17:09;17.40;99.90
33803;DHT22;20110;53.120;5.786;2022-08-19T07:19:38;17.40;99.90
33803;DHT22;20110;53.120;5.786;2022-08-19T07:22:06;17.40;99.90
33803;DHT22;20110;53.120;5.786;2022-08-19T07:24:34;17.50;99.90
33803;DHT22;20110;53.120;5.786;2022-08-19T07:27:03;17.60;99.90
33803;DHT22;20110;53.120;5.786;2022-08-19T07:29:33;17.60;99.90
33803;DHT22;20110;53.120;5.786;2022-08-19T07:32:01;17.80;99.90
33803;DHT22;20110;53.120;5.786;2022-08-19T07:34:29;17.80;99.90
33803;DHT22;20110;53.120;5.786;2022-08-19T07:36:56;18.00;99.90
33803;DHT22;20110;53.120;5.786;2022-08-19T07:39:31;17.90;99.90
33803;DHT22;20110;53.120;5.786;2022-08-19T07:42:02;18.00;99.90
33803;DHT22;20110;53.120;5.786;2022-08-19T07:44:33;18.20;99.90
33803;DHT22;20110;53.120;5.786;2022-08-19T07:46:59;18.40;99.90
33803;DHT22;20110;53.120;5.786;2022-08-19T07:49:27;18.50;99.90
33803;DHT22;20110;53.120;5.786;2022-08-19T07:51:59;18.50;99.90
33803;DHT22;20110;53.120;5.786;2022-08-19T07:54:30;18.50;99.90
33803;DHT22;20110;53.120;5.786;2022-08-19T07:56:59;18.50;99.90
33803;DHT22;20110;53.120;5.786;2022-08-19T07:59:24;18.70;99.90
33803;DHT22;20110;53.120;5.786;2022-08-19T08:01:50;18.70;99.90
33803;DHT22;20110;53.120;5.786;2022-08-19T08:04:18;18.90;99.90
33803;DHT22;20110;53.120;5.786;2022-08-19T08:07:04;19.10;99.90
33803;DHT22;20110;53.120;5.786;2022-08-19T08:09:50;19.20;99.90
33803;DHT22;20110;53.120;5.786;2022-08-19T08:12:23;19.20;99.90
33803;DHT22;20110;53.120;5.786;2022-08-19T08:14:56;19.30;99.90
33803;DHT22;20110;53.120;5.786;2022-08-19T08:17:27;19.40;99.90
33803;DHT22;20110;53.120;5.786;2022-08-19T08:19:55;19.40;99.90
33803;DHT22;20110;53.120;5.786;2022-08-19T08:22:22;19.50;99.90
33803;DHT22;20110;53.120;5.786;2022-08-19T08:25:13;19.70;99.90
33803;DHT22;20110;53.120;5.786;2022-08-19T08:27:43;19.70;99.90
33803;DHT22;20110;53.120;5.786;2022-08-19T08:30:13;19.90;99.90
33803;DHT22;20110;53.120;5.786;2022-08-19T08:32:44;20.00;99.90
33803;DHT22;20110;53.120;5.786;2022-08-19T08:35:15;20.20;99.90
33803;DHT22;20110;53.120;5.786;2022-08-19T08:37:43;20.20;99.90
33803;DHT22;20110;53.120;5.786;2022-08-19T08:40:26;20.30;99.90
33803;DHT22;20110;53.120;5.786;2022-08-19T08:43:02;20.30;99.90
33803;DHT22;20110;53.120;5.786;2022-08-19T08:45:33;20.50;99.90
33803;DHT22;20110;53.120;5.786;2022-08-19T08:48:07;20.60;99.90
33803;DHT22;20110;53.120;5.786;2022-08-19T08:50:45;20.70;99.90
33803;DHT22;20110;53.120;5.786;2022-08-19T08:53:15;20.60;99.90
33803;DHT22;20110;53.120;5.786;2022-08-19T08:55:42;20.60;99.90
33803;DHT22;20110;53.120;5.786;2022-08-19T09:01:25;20.70;99.90
33803;DHT22;20110;53.120;5.786;2022-08-19T09:03:51;20.90;99.90
33803;DHT22;20110;53.120;5.786;2022-08-19T09:06:47;20.90;99.90
33803;DHT22;20110;53.120;5.786;2022-08-19T09:09:38;21.00;99.90
33803;DHT22;20110;53.120;5.786;2022-08-19T09:12:28;21.30;99.90
33803;DHT22;20110;53.120;5.786;2022-08-19T09:15:07;21.60;99.90
33803;DHT22;20110;53.120;5.786;2022-08-19T09:17:36;21.50;99.90
33803;DHT22;20110;53.120;5.786;2022-08-19T09:20:21;21.40;99.90
33803;DHT22;20110;53.120;5.786;2022-08-19T09:22:49;21.40;99.90
33803;DHT22;20110;53.120;5.786;2022-08-19T09:25:20;21.50;99.90
33803;DHT22;20110;53.120;5.786;2022-08-19T09:27:49;21.70;99.90
33803;DHT22;20110;53.120;5.786;2022-08-19T09:30:19;21.60;99.90
33803;DHT22;20110;53.120;5.786;2022-08-19T09:32:50;21.60;99.90
33803;DHT22;20110;53.120;5.786;2022-08-19T09:35:20;21.50;99.90
33803;DHT22;20110;53.120;5.786;2022-08-19T09:37:47;21.50;99.90
33803;DHT22;20110;53.120;5.786;2022-08-19T09:40:15;21.30;99.90
33803;DHT22;20110;53.120;5.786;2022-08-19T09:42:43;21.30;99.90
33803;DHT22;20110;53.120;5.786;2022-08-19T09:45:13;21.70;99.90
33803;DHT22;20110;53.120;5.786;2022-08-19T09:47:40;22.10;99.90
33803;DHT22;20110;53.120;5.786;2022-08-19T09:50:07;22.40;99.90
33803;DHT22;20110;53.120;5.786;2022-08-19T09:52:35;22.70;99.90
33803;DHT22;20110;53.120;5.786;2022-08-19T09:55:05;22.50;99.90
33803;DHT22;20110;53.120;5.786;2022-08-19T09:57:34;22.50;99.90
33803;DHT22;20110;53.120;5.786;2022-08-19T10:00:00;22.40;99.90
33803;DHT22;20110;53.120;5.786;2022-08-19T10:02:26;22.40;99.90
33803;DHT22;20110;53.120;5.786;2022-08-19T10:04:52;22.90;99.90
33803;DHT22;20110;53.120;5.786;2022-08-19T10:07:37;23.20;99.90
33803;DHT22;20110;53.120;5.786;2022-08-19T10:10:04;23.70;99.90
33803;DHT22;20110;53.120;5.786;2022-08-19T10:12:33;23.60;99.90
33803;DHT22;20110;53.120;5.786;2022-08-19T10:15:00;24.30;99.90
33803;DHT22;20110;53.120;5.786;2022-08-19T10:17:27;24.80;99.90
33803;DHT22;20110;53.120;5.786;2022-08-19T10:19:53;24.80;99.90
33803;DHT22;20110;53.120;5.786;2022-08-19T10:22:19;24.40;99.90
33803;DHT22;20110;53.120;5.786;2022-08-19T10:24:48;24.30;99.90
33803;DHT22;20110;53.120;5.786;2022-08-19T10:27:14;23.50;99.90
33803;DHT22;20110;53.120;5.786;2022-08-19T10:29:40;23.40;99.90
33803;DHT22;20110;53.120;5.786;2022-08-19T10:32:07;23.00;99.90
33803;DHT22;20110;53.120;5.786;2022-08-19T10:34:35;23.10;99.90
33803;DHT22;20110;53.120;5.786;2022-08-19T10:37:03;22.90;99.90
33803;DHT22;20110;53.120;5.786;2022-08-19T10:39:35;22.90;99.90
33803;DHT22;20110;53.120;5.786;2022-08-19T10:42:06;22.90;99.90
33803;DHT22;20110;53.120;5.786;2022-08-19T10:44:33;22.30;99.90
33803;DHT22;20110;53.120;5.786;2022-08-19T10:47:00;22.00;99.90
33803;DHT22;20110;53.120;5.786;2022-08-19T10:49:27;22.10;99.90
33803;DHT22;20110;53.120;5.786;2022-08-19T10:51:53;22.90;99.90
33803;DHT22;20110;53.120;5.786;2022-08-19T10:54:38;23.80;99.90
33803;DHT22;20110;53.120;5.786;2022-08-19T10:57:22;24.00;99.90
33803;DHT22;20110;53.120;5.786;2022-08-19T10:59:57;23.40;99.90
33803;DHT22;20110;53.120;5.786;2022-08-19T11:02:23;23.70;99.90
33803;DHT22;20110;53.120;5.786;2022-08-19T11:04:48;24.10;99.90
33803;DHT22;20110;53.120;5.786;2022-08-19T11:07:16;24.20;99.90
33803;DHT22;20110;53.120;5.786;2022-08-19T11:09:42;24.30;99.90
33803;DHT22;20110;53.120;5.786;2022-08-19T11:12:09;24.70;99.90
33803;DHT22;20110;53.120;5.786;2022-08-19T11:14:36;24.30;99.90
33803;DHT22;20110;53.120;5.786;2022-08-19T11:17:05;24.20;99.90
33803;DHT22;20110;53.120;5.786;2022-08-19T11:19:32;24.10;99.90
33803;DHT22;20110;53.120;5.786;2022-08-19T11:21:59;23.80;99.90
33803;DHT22;20110;53.120;5.786;2022-08-19T11:24:26;24.00;99.90
33803;DHT22;20110;53.120;5.786;2022-08-19T11:27:03;23.60;99.90
33803;DHT22;20110;53.120;5.786;2022-08-19T11:29:31;23.40;99.90
33803;DHT22;20110;53.120;5.786;2022-08-19T11:31:57;23.60;99.90
33803;DHT22;20110;53.120;5.786;2022-08-19T11:34:25;23.40;99.90
33803;DHT22;20110;53.120;5.786;2022-08-19T11:36:53;23.40;99.90
33803;DHT22;20110;53.120;5.786;2022-08-19T11:39:24;23.10;99.90
33803;DHT22;20110;53.120;5.786;2022-08-19T11:41:51;23.20;99.90
33803;DHT22;20110;53.120;5.786;2022-08-19T11:44:17;23.10;99.90
33803;DHT22;20110;53.120;5.786;2022-08-19T11:46:44;23.40;99.90
33803;DHT22;20110;53.120;5.786;2022-08-19T11:49:13;23.40;99.90
33803;DHT22;20110;53.120;5.786;2022-08-19T11:51:45;23.10;99.90
33803;DHT22;20110;53.120;5.786;2022-08-19T11:54:14;23.50;99.90
33803;DHT22;20110;53.120;5.786;2022-08-19T11:56:42;24.30;99.90
33803;DHT22;20110;53.120;5.786;2022-08-19T11:59:09;24.70;99.90
33803;DHT22;20110;53.120;5.786;2022-08-19T12:01:36;24.80;99.90
33803;DHT22;20110;53.120;5.786;2022-08-19T12:04:02;24.70;99.90
33803;DHT22;20110;53.120;5.786;2022-08-19T12:06:33;24.60;99.90
33803;DHT22;20110;53.120;5.786;2022-08-19T12:09:06;23.70;99.90
33803;DHT22;20110;53.120;5.786;2022-08-19T12:11:37;23.40;99.90
33803;DHT22;20110;53.120;5.786;2022-08-19T12:14:05;23.50;99.90
33803;DHT22;20110;53.120;5.786;2022-08-19T12:16:32;23.40;99.90
33803;DHT22;20110;53.120;5.786;2022-08-19T12:18:59;23.50;99.90
33803;DHT22;20110;53.120;5.786;2022-08-19T12:21:30;23.60;99.90
33803;DHT22;20110;53.120;5.786;2022-08-19T12:23:58;23.90;99.90
33803;DHT22;20110;53.120;5.786;2022-08-19T12:26:27;24.20;99.90
33803;DHT22;20110;53.120;5.786;2022-08-19T12:28:54;24.60;99.90
33803;DHT22;20110;53.120;5.786;2022-08-19T12:31:20;24.70;99.90
33803;DHT22;20110;53.120;5.786;2022-08-19T12:33:47;24.40;99.90
33803;DHT22;20110;53.120;5.786;2022-08-19T12:36:15;24.10;99.90
33803;DHT22;20110;53.120;5.786;2022-08-19T12:38:43;24.50;99.90
33803;DHT22;20110;53.120;5.786;2022-08-19T12:41:13;24.40;99.90
33803;DHT22;20110;53.120;5.786;2022-08-19T12:43:41;24.10;99.90
33803;DHT22;20110;53.120;5.786;2022-08-19T12:46:08;24.10;99.90
33803;DHT22;20110;53.120;5.786;2022-08-19T12:48:35;24.00;99.90
33803;DHT22;20110;53.120;5.786;2022-08-19T12:51:16;23.90;99.90
33803;DHT22;20110;53.120;5.786;2022-08-19T12:53:46;24.00;99.90
33803;DHT22;20110;53.120;5.786;2022-08-19T12:56:14;24.00;99.90
33803;DHT22;20110;53.120;5.786;2022-08-19T12:58:41;23.60;99.90
33803;DHT22;20110;53.120;5.786;2022-08-19T13:01:12;23.40;99.90
33803;DHT22;20110;53.120;5.786;2022-08-19T13:03:46;23.40;99.90
33803;DHT22;20110;53.120;5.786;2022-08-19T13:06:15;23.40;99.90
33803;DHT22;20110;53.120;5.786;2022-08-19T13:08:41;23.30;99.90
33803;DHT22;20110;53.120;5.786;2022-08-19T13:11:16;23.10;99.90
33803;DHT22;20110;53.120;5.786;2022-08-19T13:13:46;23.20;99.90
33803;DHT22;20110;53.120;5.786;2022-08-19T13:16:16;23.00;99.90
33803;DHT22;20110;53.120;5.786;2022-08-19T13:18:45;23.00;99.90
33803;DHT22;20110;53.120;5.786;2022-08-19T13:21:19;22.90;99.90
33803;DHT22;20110;53.120;5.786;2022-08-19T13:23:46;22.80;99.90
33803;DHT22;20110;53.120;5.786;2022-08-19T13:26:13;22.60;99.90
33803;DHT22;20110;53.120;5.786;2022-08-19T13:28:42;23.10;99.90
33803;DHT22;20110;53.120;5.786;2022-08-19T13:31:42;22.90;99.90
33803;DHT22;20110;53.120;5.786;2022-08-19T13:34:35;22.90;99.90
33803;DHT22;20110;53.120;5.786;2022-08-19T13:37:04;23.00;99.90
33803;DHT22;20110;53.120;5.786;2022-08-19T13:39:32;22.50;99.90
33803;DHT22;20110;53.120;5.786;2022-08-19T13:42:01;22.50;99.90
33803;DHT22;20110;53.120;5.786;2022-08-19T13:44:29;22.50;99.90
33803;DHT22;20110;53.120;5.786;2022-08-19T13:47:00;22.50;99.90
33803;DHT22;20110;53.120;5.786;2022-08-19T13:49:31;22.80;99.90
33803;DHT22;20110;53.120;5.786;2022-08-19T13:51:58;23.00;99.90
33803;DHT22;20110;53.120;5.786;2022-08-19T13:54:26;22.40;99.90
33803;DHT22;20110;53.120;5.786;2022-08-19T13:56:53;22.10;99.90
33803;DHT22;20110;53.120;5.786;2022-08-19T13:59:21;22.10;99.90
33803;DHT22;20110;53.120;5.786;2022-08-19T14:01:46;22.30;99.90
33803;DHT22;20110;53.120;5.786;2022-08-19T14:04:12;22.00;99.90
33803;DHT22;20110;53.120;5.786;2022-08-19T14:06:38;22.40;99.90
33803;DHT22;20110;53.120;5.786;2022-08-19T14:09:07;22.50;99.90
33803;DHT22;20110;53.120;5.786;2022-08-19T14:11:34;22.60;99.90
33803;DHT22;20110;53.120;5.786;2022-08-19T14:14:03;22.30;99.90
33803;DHT22;20110;53.120;5.786;2022-08-19T14:16:29;22.60;99.90
33803;DHT22;20110;53.120;5.786;2022-08-19T14:18:56;22.30;99.90
33803;DHT22;20110;53.120;5.786;2022-08-19T14:21:23;22.90;99.90
33803;DHT22;20110;53.120;5.786;2022-08-19T14:23:51;23.60;99.90
33803;DHT22;20110;53.120;5.786;2022-08-19T14:26:19;24.20;99.90
33803;DHT22;20110;53.120;5.786;2022-08-19T14:28:46;24.50;99.90
33803;DHT22;20110;53.120;5.786;2022-08-19T14:31:15;24.60;99.90
33803;DHT22;20110;53.120;5.786;2022-08-19T14:33:45;24.60;99.90
33803;DHT22;20110;53.120;5.786;2022-08-19T14:36:14;24.80;99.90
33803;DHT22;20110;53.120;5.786;2022-08-19T14:38:40;24.60;99.90
33803;DHT22;20110;53.120;5.786;2022-08-19T14:41:19;23.90;99.90
33803;DHT22;20110;53.120;5.786;2022-08-19T14:43:49;23.70;99.90
33803;DHT22;20110;53.120;5.786;2022-08-19T14:46:20;23.70;99.90
33803;DHT22;20110;53.120;5.786;2022-08-19T14:48:52;23.10;99.90
33803;DHT22;20110;53.120;5.786;2022-08-19T14:51:21;23.00;99.90
33803;DHT22;20110;53.120;5.786;2022-08-19T14:53:49;22.90;99.90
33803;DHT22;20110;53.120;5.786;2022-08-19T14:56:19;23.10;99.90
33803;DHT22;20110;53.120;5.786;2022-08-19T14:58:49;23.50;99.90
33803;DHT22;20110;53.120;5.786;2022-08-19T15:01:22;23.90;99.90
33803;DHT22;20110;53.120;5.786;2022-08-19T15:03:51;24.10;99.90
33803;DHT22;20110;53.120;5.786;2022-08-19T15:06:21;24.20;99.90
33803;DHT22;20110;53.120;5.786;2022-08-19T15:08:50;24.10;99.90
33803;DHT22;20110;53.120;5.786;2022-08-19T15:11:22;24.10;99.90
33803;DHT22;20110;53.120;5.786;2022-08-19T15:13:52;24.20;99.90
33803;DHT22;20110;53.120;5.786;2022-08-19T15:16:20;24.10;99.90
33803;DHT22;20110;53.120;5.786;2022-08-19T15:18:49;23.60;99.90
33803;DHT22;20110;53.120;5.786;2022-08-19T15:21:18;23.90;99.90
33803;DHT22;20110;53.120;5.786;2022-08-19T15:23:45;23.90;99.90
33803;DHT22;20110;53.120;5.786;2022-08-19T15:26:14;23.70;99.90
33803;DHT22;20110;53.120;5.786;2022-08-19T15:28:41;23.60;99.90
33803;DHT22;20110;53.120;5.786;2022-08-19T15:31:09;23.90;99.90
33803;DHT22;20110;53.120;5.786;2022-08-19T15:33:36;23.80;99.90
33803;DHT22;20110;53.120;5.786;2022-08-19T15:36:05;23.50;99.90
33803;DHT22;20110;53.120;5.786;2022-08-19T15:38:33;23.70;99.90
33803;DHT22;20110;53.120;5.786;2022-08-19T15:41:04;23.70;99.90
33803;DHT22;20110;53.120;5.786;2022-08-19T15:43:53;23.60;99.90
33803;DHT22;20110;53.120;5.786;2022-08-19T15:46:25;23.50;99.90
33803;DHT22;20110;53.120;5.786;2022-08-19T15:48:57;23.40;99.90
33803;DHT22;20110;53.120;5.786;2022-08-19T15:51:24;23.60;99.90
33803;DHT22;20110;53.120;5.786;2022-08-19T15:53:53;23.40;99.90